createdAt,value
2023-01-18T00:02:23.746Z,935.44
2023-01-18T00:04:50.122Z,935.27
2023-01-18T00:07:16.432Z,935.34
2023-01-18T00:09:42.815Z,935.30
2023-01-18T00:12:09.192Z,935.27
2023-01-18T00:14:35.660Z,935.40
2023-01-18T00:17:02.113Z,935.41
2023-01-18T00:19:28.473Z,935.43
2023-01-18T00:21:54.848Z,935.52
2023-01-18T00:24:21.300Z,935.61
2023-01-18T00:26:47.663Z,935.59
2023-01-18T00:29:13.998Z,935.57
2023-01-18T00:31:40.422Z,935.43
2023-01-18T00:34:06.769Z,935.44
2023-01-18T00:36:33.085Z,935.40
2023-01-18T00:38:59.630Z,935.30
2023-01-18T00:41:26.037Z,935.34
2023-01-18T00:43:52.406Z,935.46
2023-01-18T00:46:18.814Z,935.36
2023-01-18T00:48:45.208Z,935.32
2023-01-18T00:51:11.623Z,935.49
2023-01-18T00:53:38.070Z,935.59
2023-01-18T00:56:04.379Z,935.31
2023-01-18T00:58:30.735Z,935.36
2023-01-18T01:00:57.237Z,935.02
2023-01-18T01:03:23.497Z,935.19
2023-01-18T01:05:50.201Z,935.14
2023-01-18T01:08:16.578Z,935.32
2023-01-18T01:10:43.043Z,935.33
2023-01-18T01:13:09.354Z,935.46
2023-01-18T01:15:35.759Z,935.33
2023-01-18T01:18:04.326Z,935.04
2023-01-18T01:20:30.686Z,935.35
2023-01-18T01:22:57.259Z,935.29
2023-01-18T01:25:23.330Z,935.30
2023-01-18T01:27:49.739Z,935.53
2023-01-18T01:30:16.152Z,935.51
2023-01-18T01:32:42.525Z,935.46
2023-01-18T01:35:08.948Z,935.56
2023-01-18T01:37:35.253Z,935.52
2023-01-18T01:40:01.640Z,935.26
2023-01-18T01:42:27.917Z,935.39
2023-01-18T01:44:54.242Z,935.44
2023-01-18T01:47:20.639Z,935.42
2023-01-18T01:49:46.964Z,935.37
2023-01-18T01:52:13.369Z,935.39
2023-01-18T01:54:39.748Z,935.64
2023-01-18T01:57:06.209Z,935.71
2023-01-18T01:59:32.467Z,935.65
2023-01-18T02:01:58.880Z,935.80
2023-01-18T02:04:25.237Z,935.85
2023-01-18T02:06:51.705Z,935.81
2023-01-18T02:09:18.015Z,935.62
2023-01-18T02:11:44.420Z,935.65
2023-01-18T02:14:10.808Z,935.63
2023-01-18T02:16:37.194Z,935.68
2023-01-18T02:19:03.545Z,935.54
2023-01-18T02:21:29.914Z,935.58
2023-01-18T02:23:56.270Z,935.48
2023-01-18T02:26:22.678Z,935.58
2023-01-18T02:28:49.052Z,935.46
2023-01-18T02:31:15.374Z,935.49
2023-01-18T02:33:41.903Z,935.57
2023-01-18T02:36:08.164Z,935.55
2023-01-18T02:38:34.614Z,935.29
2023-01-18T02:41:00.983Z,935.29
2023-01-18T02:43:27.340Z,935.61
2023-01-18T02:45:53.700Z,935.48
2023-01-18T02:48:20.066Z,935.29
2023-01-18T02:50:46.373Z,935.03
2023-01-18T02:53:12.701Z,935.06
2023-01-18T02:55:39.087Z,935.04
2023-01-18T02:58:05.450Z,935.37
2023-01-18T03:00:31.894Z,935.55
2023-01-18T03:02:58.749Z,935.72
2023-01-18T03:05:24.707Z,935.43
2023-01-18T03:07:51.093Z,935.26
2023-01-18T03:10:17.415Z,935.57
2023-01-18T03:12:43.812Z,935.75
2023-01-18T03:15:10.207Z,935.47
2023-01-18T03:17:36.538Z,935.52
2023-01-18T03:20:02.844Z,935.55
2023-01-18T03:22:29.192Z,935.59
2023-01-18T03:24:55.601Z,935.59
2023-01-18T03:27:22.008Z,935.25
2023-01-18T03:29:48.415Z,935.35
2023-01-18T03:32:14.737Z,935.32
2023-01-18T03:34:41.050Z,935.48
2023-01-18T03:37:07.503Z,935.45
2023-01-18T03:39:33.808Z,935.18
2023-01-18T03:42:00.206Z,935.10
2023-01-18T03:44:26.597Z,935.23
2023-01-18T03:46:52.948Z,935.42
2023-01-18T03:49:19.261Z,935.32
2023-01-18T03:51:45.609Z,935.49
2023-01-18T03:54:11.993Z,935.10
2023-01-18T03:56:38.383Z,935.44
2023-01-18T03:59:04.743Z,935.54
2023-01-18T04:01:31.149Z,935.33
2023-01-18T04:03:57.401Z,935.21
2023-01-18T04:06:23.815Z,935.13
2023-01-18T04:08:50.133Z,935.47
2023-01-18T04:11:16.513Z,935.42
2023-01-18T04:13:43.206Z,935.62
2023-01-18T04:16:09.577Z,935.68
2023-01-18T04:18:35.921Z,935.69
2023-01-18T04:21:02.283Z,935.47
2023-01-18T04:23:28.692Z,935.65
2023-01-18T04:25:55.013Z,935.51
2023-01-18T04:28:21.357Z,935.56
2023-01-18T04:30:47.709Z,935.47
2023-01-18T04:33:14.089Z,935.37
2023-01-18T04:35:40.449Z,936.36
2023-01-18T04:38:07.887Z,935.29
2023-01-18T04:40:34.286Z,935.44
2023-01-18T04:43:00.824Z,935.52
2023-01-18T04:45:26.983Z,935.50
2023-01-18T04:47:53.341Z,935.28
2023-01-18T04:50:19.716Z,935.28
2023-01-18T04:52:46.114Z,935.33
2023-01-18T04:55:12.462Z,935.54
2023-01-18T04:57:38.869Z,935.25
2023-01-18T05:00:07.196Z,935.38
2023-01-18T05:02:31.592Z,935.18
2023-01-18T05:04:57.998Z,935.69
2023-01-18T05:07:24.407Z,935.28
2023-01-18T05:09:50.767Z,935.13
2023-01-18T05:12:17.181Z,936.06
2023-01-18T05:14:43.494Z,935.36
2023-01-18T05:17:09.928Z,935.30
2023-01-18T05:19:36.249Z,935.33
2023-01-18T05:22:02.618Z,935.55
2023-01-18T05:24:30.083Z,935.49
2023-01-18T05:26:55.456Z,935.50
2023-01-18T05:29:21.758Z,935.49
2023-01-18T05:31:48.364Z,935.69
2023-01-18T05:34:14.763Z,935.80
2023-01-18T05:36:41.126Z,935.63
2023-01-18T05:39:07.495Z,935.68
2023-01-18T05:41:33.931Z,935.65
2023-01-18T05:44:00.302Z,935.43
2023-01-18T05:46:26.657Z,935.74
2023-01-18T05:48:53.037Z,935.71
2023-01-18T05:51:19.445Z,935.66
2023-01-18T05:53:45.829Z,935.68
2023-01-18T05:56:12.222Z,935.63
2023-01-18T05:58:38.579Z,935.83
2023-01-18T06:01:05.060Z,935.91
2023-01-18T06:03:31.334Z,935.86
2023-01-18T06:05:57.766Z,935.86
2023-01-18T06:08:24.178Z,935.75
2023-01-18T06:10:50.536Z,935.95
2023-01-18T06:13:16.904Z,935.83
2023-01-18T06:15:43.295Z,936.28
2023-01-18T06:18:09.664Z,936.18
2023-01-18T06:20:36.071Z,936.04
2023-01-18T06:23:02.575Z,936.13
2023-01-18T06:25:28.979Z,937.57
2023-01-18T06:27:55.334Z,936.43
2023-01-18T06:30:21.659Z,935.94
2023-01-18T06:32:48.000Z,936.30
2023-01-18T06:35:14.393Z,936.43
2023-01-18T06:37:40.786Z,936.42
2023-01-18T06:40:07.172Z,936.29
2023-01-18T06:42:33.526Z,936.22
2023-01-18T06:45:00.285Z,936.24
2023-01-18T06:47:26.639Z,936.08
2023-01-18T06:49:52.946Z,936.09
2023-01-18T06:52:19.447Z,936.04
2023-01-18T06:54:45.801Z,936.12
2023-01-18T06:57:12.104Z,936.18
2023-01-18T06:59:38.456Z,936.25
2023-01-18T07:02:04.841Z,936.09
2023-01-18T07:04:31.129Z,936.00
2023-01-18T07:06:57.485Z,935.95
2023-01-18T07:09:23.804Z,936.13
2023-01-18T07:11:50.213Z,936.27
2023-01-18T07:14:16.649Z,935.84
2023-01-18T07:16:43.080Z,935.82
2023-01-18T07:19:09.476Z,935.95
2023-01-18T07:21:35.934Z,935.88
2023-01-18T07:24:02.323Z,936.13
2023-01-18T07:26:28.816Z,936.27
2023-01-18T07:28:55.260Z,935.98
2023-01-18T07:31:21.610Z,935.94
2023-01-18T07:33:48.057Z,936.04
2023-01-18T07:36:14.451Z,935.97
2023-01-18T07:38:40.856Z,936.02
2023-01-18T07:41:07.278Z,936.29
2023-01-18T07:43:33.655Z,936.43
2023-01-18T07:46:00.148Z,936.52
2023-01-18T07:48:26.750Z,936.80
2023-01-18T07:50:53.063Z,936.73
2023-01-18T07:53:27.293Z,936.64
2023-01-18T07:55:53.691Z,937.23
2023-01-18T07:58:20.003Z,937.00
2023-01-18T08:00:46.476Z,937.26
2023-01-18T08:03:12.822Z,937.02
2023-01-18T08:05:39.114Z,937.29
2023-01-18T08:08:05.503Z,937.47
2023-01-18T08:10:31.922Z,937.28
2023-01-18T08:12:58.609Z,937.29
2023-01-18T08:15:24.769Z,937.59
2023-01-18T08:17:51.088Z,937.58
2023-01-18T08:20:17.497Z,937.61
2023-01-18T08:22:43.812Z,937.78
2023-01-18T08:25:10.177Z,937.61
2023-01-18T08:27:36.510Z,937.99
2023-01-18T08:30:02.866Z,937.95
2023-01-18T08:32:29.482Z,937.44
2023-01-18T08:34:55.805Z,937.68
2023-01-18T08:37:23.359Z,937.70
2023-01-18T08:39:49.745Z,937.80
2023-01-18T08:42:16.111Z,937.71
2023-01-18T08:44:42.488Z,937.81
2023-01-18T08:47:09.295Z,937.83
2023-01-18T08:49:35.682Z,937.69
2023-01-18T08:52:01.988Z,937.79
2023-01-18T08:54:28.720Z,937.79
2023-01-18T08:56:55.033Z,937.96
2023-01-18T08:59:21.417Z,937.75
2023-01-18T09:01:48.081Z,937.81
2023-01-18T09:04:14.349Z,938.04
2023-01-18T09:06:40.721Z,937.77
2023-01-18T09:09:07.425Z,937.87
2023-01-18T09:11:33.773Z,937.84
2023-01-18T09:14:01.815Z,937.74
2023-01-18T09:16:26.905Z,938.05
2023-01-18T09:18:53.180Z,938.17
2023-01-18T09:21:19.680Z,938.07
2023-01-18T09:23:46.109Z,938.10
2023-01-18T09:26:12.451Z,938.13
2023-01-18T09:28:38.850Z,938.25
2023-01-18T09:31:05.195Z,938.06
2023-01-18T09:33:37.594Z,938.18
2023-01-18T09:35:57.980Z,937.84
2023-01-18T09:38:24.331Z,937.80
2023-01-18T09:40:50.690Z,937.96
2023-01-18T09:43:17.064Z,938.18
2023-01-18T09:45:43.379Z,937.98
2023-01-18T09:48:09.758Z,937.82
2023-01-18T09:50:36.185Z,937.86
2023-01-18T09:53:02.598Z,937.78
2023-01-18T09:55:28.986Z,937.79
2023-01-18T09:57:55.422Z,937.99
2023-01-18T10:00:21.737Z,937.64
2023-01-18T10:02:48.921Z,937.65
2023-01-18T10:05:15.277Z,937.76
2023-01-18T10:07:41.602Z,937.82
2023-01-18T10:10:07.975Z,937.89
2023-01-18T10:12:34.390Z,938.20
2023-01-18T10:15:00.769Z,938.07
2023-01-18T10:17:27.190Z,938.12
2023-01-18T10:19:53.785Z,938.00
2023-01-18T10:22:20.143Z,938.29
2023-01-18T10:24:46.548Z,938.17
2023-01-18T10:27:13.210Z,938.26
2023-01-18T10:29:39.603Z,938.47
2023-01-18T10:32:06.029Z,938.56
2023-01-18T10:34:32.609Z,938.87
2023-01-18T10:36:59.110Z,938.64
2023-01-18T10:39:25.533Z,938.55
2023-01-18T10:41:51.914Z,938.75
2023-01-18T10:44:20.709Z,938.77
2023-01-18T10:46:47.110Z,939.00
2023-01-18T10:49:13.516Z,938.98
2023-01-18T10:51:39.893Z,938.65
2023-01-18T10:54:06.220Z,938.90
2023-01-18T10:56:32.545Z,938.71
2023-01-18T10:58:58.901Z,938.67
2023-01-18T11:01:25.353Z,938.57
2023-01-18T11:03:51.625Z,938.41
2023-01-18T11:06:18.037Z,938.36
2023-01-18T11:08:44.494Z,938.33
2023-01-18T11:11:10.895Z,938.31
2023-01-18T11:13:37.337Z,938.33
2023-01-18T11:16:04.267Z,938.36
2023-01-18T11:18:30.579Z,938.46
2023-01-18T11:20:57.015Z,938.42
2023-01-18T11:23:23.396Z,938.50
2023-01-18T11:25:49.725Z,938.44
2023-01-18T11:28:16.275Z,938.31
2023-01-18T11:30:42.633Z,938.41
2023-01-18T11:33:08.957Z,938.41
2023-01-18T11:35:35.330Z,938.48
2023-01-18T11:38:02.226Z,938.46
2023-01-18T11:40:28.457Z,938.51
2023-01-18T11:42:54.807Z,938.62
2023-01-18T11:45:22.474Z,938.66
2023-01-18T11:47:47.814Z,938.50
2023-01-18T11:50:22.004Z,938.58
2023-01-18T11:52:40.575Z,938.60
2023-01-18T11:55:06.891Z,938.57
2023-01-18T11:57:33.446Z,938.73
2023-01-18T11:59:59.815Z,938.62
2023-01-18T12:02:26.345Z,938.67
2023-01-18T12:04:52.681Z,938.73
2023-01-18T12:07:19.055Z,938.54
2023-01-18T12:09:45.518Z,938.67
2023-01-18T12:12:18.930Z,938.53
2023-01-18T12:14:38.195Z,938.67
2023-01-18T12:17:04.644Z,938.59
2023-01-18T12:19:31.006Z,938.57
2023-01-18T12:21:57.312Z,938.78
2023-01-18T12:24:23.728Z,938.93
2023-01-18T12:26:50.106Z,938.95
2023-01-18T12:29:16.407Z,938.93
2023-01-18T12:31:42.822Z,938.82
2023-01-18T12:34:09.246Z,938.99
2023-01-18T12:36:35.551Z,938.93
2023-01-18T12:39:01.896Z,938.91
2023-01-18T12:41:28.315Z,938.90
2023-01-18T12:43:55.707Z,938.91
2023-01-18T12:46:21.147Z,938.95
2023-01-18T12:48:47.516Z,939.06
2023-01-18T12:51:13.906Z,939.06
2023-01-18T12:53:40.358Z,939.06
2023-01-18T12:56:06.762Z,939.15
2023-01-18T12:58:33.153Z,939.15
2023-01-18T13:00:59.745Z,939.38
2023-01-18T13:03:26.001Z,939.46
2023-01-18T13:05:52.369Z,939.27
2023-01-18T13:08:18.939Z,939.35
2023-01-18T13:10:45.294Z,939.45
2023-01-18T13:13:11.679Z,939.51
2023-01-18T13:15:38.225Z,939.48
2023-01-18T13:18:04.569Z,939.54
2023-01-18T13:20:30.946Z,939.57
2023-01-18T13:22:57.641Z,939.61
2023-01-18T13:25:25.065Z,939.56
2023-01-18T13:27:50.397Z,939.62
2023-01-18T13:30:16.806Z,939.59
2023-01-18T13:32:43.175Z,939.57
2023-01-18T13:35:20.046Z,939.65
2023-01-18T13:37:36.195Z,939.64
2023-01-18T13:40:02.546Z,939.72
2023-01-18T13:42:28.864Z,939.73
2023-01-18T13:44:55.320Z,939.65
2023-01-18T13:47:21.734Z,939.64
2023-01-18T13:49:48.091Z,939.63
2023-01-18T13:52:14.470Z,939.44
2023-01-18T13:54:40.786Z,939.49
2023-01-18T13:57:07.116Z,939.59
2023-01-18T13:59:33.440Z,939.68
2023-01-18T14:01:59.897Z,939.78
2023-01-18T14:04:26.260Z,939.87
2023-01-18T14:06:52.619Z,939.69
2023-01-18T14:09:19.022Z,939.77
2023-01-18T14:11:45.661Z,939.77
2023-01-18T14:14:12.064Z,939.76
2023-01-18T14:16:38.510Z,939.79
2023-01-18T14:19:04.833Z,939.94
2023-01-18T14:21:31.190Z,940.04
2023-01-18T14:23:57.500Z,940.08
2023-01-18T14:26:23.866Z,940.03
2023-01-18T14:28:51.320Z,939.99
2023-01-18T14:31:17.700Z,940.03
2023-01-18T14:33:43.991Z,940.09
2023-01-18T14:36:10.630Z,940.21
2023-01-18T14:38:37.054Z,940.22
2023-01-18T14:41:04.928Z,940.21
2023-01-18T14:43:29.758Z,940.23
2023-01-18T14:45:56.138Z,940.18
2023-01-18T14:48:22.497Z,940.14
2023-01-18T14:50:48.859Z,940.13
2023-01-18T14:53:15.191Z,940.09
2023-01-18T14:55:41.602Z,940.07
2023-01-18T14:58:07.943Z,940.14
2023-01-18T15:00:34.375Z,940.15
2023-01-18T15:03:01.237Z,940.18
2023-01-18T15:05:27.121Z,940.15
2023-01-18T15:07:53.553Z,940.14
2023-01-18T15:10:19.897Z,940.21
2023-01-18T15:12:46.382Z,940.26
2023-01-18T15:15:12.766Z,940.20
2023-01-18T15:17:39.273Z,940.32
2023-01-18T15:20:05.662Z,940.37
2023-01-18T15:22:32.022Z,940.27
2023-01-18T15:24:58.434Z,940.34
2023-01-18T15:27:24.803Z,940.36
2023-01-18T15:29:51.174Z,940.33
2023-01-18T15:32:17.572Z,940.22
2023-01-18T15:34:43.931Z,940.33
2023-01-18T15:37:12.186Z,940.31
2023-01-18T15:39:36.928Z,940.35
2023-01-18T15:42:03.294Z,940.43
2023-01-18T15:44:29.962Z,940.34
2023-01-18T15:46:56.332Z,940.32
2023-01-18T15:49:22.670Z,940.35
2023-01-18T15:51:49.171Z,940.44
2023-01-18T15:54:15.651Z,940.25
2023-01-18T15:56:42.304Z,940.25
2023-01-18T15:59:08.675Z,940.22
2023-01-18T16:01:36.443Z,940.23
2023-01-18T16:04:05.405Z,940.24
2023-01-18T16:06:31.709Z,940.14
2023-01-18T16:08:58.147Z,940.02
2023-01-18T16:11:24.540Z,940.15
2023-01-18T16:13:50.851Z,940.26
2023-01-18T16:16:17.331Z,940.12
2023-01-18T16:18:43.641Z,940.08
2023-01-18T16:21:09.952Z,940.12
2023-01-18T16:23:36.415Z,940.10
2023-01-18T16:26:02.785Z,940.15
2023-01-18T16:28:29.632Z,940.23
2023-01-18T16:30:55.973Z,940.31
2023-01-18T16:33:22.319Z,940.33
2023-01-18T16:35:48.703Z,940.31
2023-01-18T16:38:15.116Z,940.27
2023-01-18T16:40:42.899Z,940.17
2023-01-18T16:43:07.828Z,940.20
2023-01-18T16:45:34.266Z,940.32
2023-01-18T16:48:00.862Z,940.38
2023-01-18T16:50:26.827Z,940.36
2023-01-18T16:52:53.195Z,940.31
2023-01-18T16:55:19.524Z,940.33
2023-01-18T16:57:45.893Z,940.34
2023-01-18T17:00:12.304Z,940.31
2023-01-18T17:02:38.951Z,940.23
2023-01-18T17:05:05.280Z,940.14
2023-01-18T17:07:31.660Z,940.15
2023-01-18T17:09:58.075Z,940.19
2023-01-18T17:12:24.439Z,940.17
2023-01-18T17:14:50.794Z,940.19
2023-01-18T17:17:17.175Z,940.20
2023-01-18T17:19:43.536Z,940.11
2023-01-18T17:22:09.904Z,940.16
2023-01-18T17:24:38.659Z,940.28
2023-01-18T17:27:05.011Z,940.25
2023-01-18T17:29:31.820Z,940.33
2023-01-18T17:31:58.333Z,940.44
2023-01-18T17:34:27.859Z,940.44
2023-01-18T17:36:51.171Z,940.43
2023-01-18T17:39:17.568Z,940.43
2023-01-18T17:41:43.968Z,940.47
2023-01-18T17:44:10.251Z,940.34
2023-01-18T17:46:36.742Z,940.48
2023-01-18T17:49:03.072Z,940.49
2023-01-18T17:51:29.485Z,940.60
2023-01-18T17:53:56.702Z,940.79
2023-01-18T17:56:23.107Z,940.79
2023-01-18T17:58:50.601Z,940.81
2023-01-18T18:01:19.491Z,940.76
2023-01-18T18:03:45.818Z,940.69
2023-01-18T18:06:14.452Z,940.75
2023-01-18T18:08:38.508Z,940.81
2023-01-18T18:11:04.823Z,940.75
2023-01-18T18:13:31.196Z,940.78
2023-01-18T18:15:57.628Z,940.91
2023-01-18T18:18:23.999Z,940.86
2023-01-18T18:20:50.323Z,940.75
2023-01-18T18:23:16.648Z,940.83
2023-01-18T18:25:43.237Z,940.73
2023-01-18T18:28:09.645Z,940.68
2023-01-18T18:30:35.963Z,940.72
2023-01-18T18:33:02.761Z,940.87
2023-01-18T18:35:28.671Z,940.95
2023-01-18T18:37:55.137Z,940.82
2023-01-18T18:40:21.614Z,940.77
2023-01-18T18:43:00.743Z,940.89
2023-01-18T18:45:14.335Z,940.89
2023-01-18T18:47:40.749Z,940.93
2023-01-18T18:50:07.447Z,941.06
2023-01-18T18:52:34.864Z,941.04
2023-01-18T18:55:00.414Z,940.95
2023-01-18T18:57:26.820Z,941.10
2023-01-18T18:59:53.169Z,941.04
2023-01-18T19:02:19.539Z,941.02
2023-01-18T19:04:46.015Z,941.05
2023-01-18T19:07:12.401Z,941.13
2023-01-18T19:09:38.710Z,941.21
2023-01-18T19:12:05.100Z,941.42
2023-01-18T19:14:31.675Z,941.26
2023-01-18T19:16:58.144Z,941.20
2023-01-18T19:19:25.895Z,941.12
2023-01-18T19:21:50.923Z,941.18
2023-01-18T19:24:17.443Z,941.10
2023-01-18T19:26:43.769Z,941.46
2023-01-18T19:29:10.168Z,941.57
2023-01-18T19:31:36.948Z,941.54
2023-01-18T19:34:03.297Z,941.22
2023-01-18T19:36:31.064Z,941.25
2023-01-18T19:38:59.793Z,941.39
2023-01-18T19:41:24.900Z,941.31
2023-01-18T19:43:50.172Z,941.50
2023-01-18T19:46:16.554Z,941.41
2023-01-18T19:48:42.922Z,941.48
2023-01-18T19:51:20.795Z,941.59
2023-01-18T19:53:35.677Z,941.35
2023-01-18T19:56:07.149Z,941.48
2023-01-18T19:58:28.475Z,941.47
2023-01-18T20:00:55.012Z,941.54
2023-01-18T20:03:21.344Z,941.69
2023-01-18T20:05:47.657Z,941.73
2023-01-18T20:08:14.104Z,941.37
2023-01-18T20:10:40.434Z,941.64
2023-01-18T20:13:06.811Z,941.56
2023-01-18T20:15:33.315Z,941.58
2023-01-18T20:17:59.679Z,941.51
2023-01-18T20:20:32.585Z,941.53
2023-01-18T20:22:52.738Z,941.54
2023-01-18T20:25:19.054Z,941.68
2023-01-18T20:27:45.380Z,941.79
2023-01-18T20:30:11.807Z,941.88
2023-01-18T20:32:38.115Z,941.92
2023-01-18T20:35:04.537Z,941.85
2023-01-18T20:37:31.324Z,941.65
2023-01-18T20:39:57.701Z,941.66
2023-01-18T20:42:24.120Z,941.57
2023-01-18T20:44:50.533Z,941.59
2023-01-18T20:47:17.000Z,941.69
2023-01-18T20:49:43.329Z,941.82
2023-01-18T20:52:12.131Z,941.56
2023-01-18T20:54:38.540Z,941.60
2023-01-18T20:57:04.865Z,941.58
2023-01-18T20:59:31.447Z,941.51
2023-01-18T21:01:58.137Z,941.46
2023-01-18T21:04:24.388Z,941.40
2023-01-18T21:06:50.854Z,941.49
2023-01-18T21:09:17.299Z,941.54
2023-01-18T21:11:43.692Z,941.53
2023-01-18T21:14:10.200Z,941.63
2023-01-18T21:16:36.644Z,941.50
2023-01-18T21:19:02.883Z,941.39
2023-01-18T21:21:29.352Z,941.38
2023-01-18T21:23:55.691Z,941.13
2023-01-18T21:26:22.049Z,941.06
2023-01-18T21:28:48.431Z,940.99
2023-01-18T21:31:17.095Z,941.12
2023-01-18T21:33:43.434Z,940.98
2023-01-18T21:36:09.793Z,940.86
2023-01-18T21:38:36.196Z,940.93
2023-01-18T21:41:02.626Z,940.88
2023-01-18T21:43:28.990Z,941.17
2023-01-18T21:45:55.458Z,941.10
2023-01-18T21:48:21.989Z,940.77
2023-01-18T21:50:48.350Z,940.50
2023-01-18T21:53:14.732Z,940.72
2023-01-18T21:55:41.300Z,940.80
2023-01-18T21:58:07.624Z,940.77
2023-01-18T22:00:34.035Z,940.77
2023-01-18T22:03:00.389Z,940.95
2023-01-18T22:05:26.715Z,940.82
2023-01-18T22:07:53.102Z,940.80
2023-01-18T22:10:19.456Z,940.92
2023-01-18T22:12:45.860Z,940.93
2023-01-18T22:15:12.295Z,940.88
2023-01-18T22:17:38.657Z,940.86
2023-01-18T22:20:05.074Z,940.75
2023-01-18T22:22:31.414Z,940.79
2023-01-18T22:24:57.814Z,940.98
2023-01-18T22:27:24.194Z,940.94
2023-01-18T22:29:50.609Z,940.74
2023-01-18T22:32:17.010Z,940.89
2023-01-18T22:34:43.414Z,940.71
2023-01-18T22:37:09.786Z,940.66
2023-01-18T22:39:36.100Z,940.80
2023-01-18T22:42:02.505Z,940.85
2023-01-18T22:44:29.044Z,940.87
2023-01-18T22:46:55.359Z,940.82
2023-01-18T22:49:24.124Z,940.70
2023-01-18T22:51:50.723Z,940.71
2023-01-18T22:54:16.819Z,940.73
2023-01-18T22:56:43.224Z,940.75
2023-01-18T22:59:09.624Z,940.86
2023-01-18T23:01:35.929Z,940.82
2023-01-18T23:04:02.262Z,940.73
2023-01-18T23:06:28.611Z,940.71
2023-01-18T23:08:54.991Z,940.71
2023-01-18T23:11:21.372Z,940.59
2023-01-18T23:13:47.678Z,940.60
2023-01-18T23:16:14.173Z,940.51
2023-01-18T23:18:40.508Z,940.64
2023-01-18T23:21:06.972Z,940.65
2023-01-18T23:23:33.337Z,940.71
2023-01-18T23:25:59.691Z,940.72
2023-01-18T23:28:26.102Z,940.57
2023-01-18T23:30:52.465Z,940.57
2023-01-18T23:33:18.806Z,940.65
2023-01-18T23:35:45.181Z,940.65
2023-01-18T23:38:11.544Z,940.56
2023-01-18T23:40:37.996Z,940.70
2023-01-18T23:43:04.353Z,940.73
2023-01-18T23:45:30.740Z,940.74
2023-01-18T23:47:57.139Z,940.80
2023-01-18T23:50:23.482Z,940.82
2023-01-18T23:52:49.891Z,940.83
2023-01-18T23:55:16.292Z,940.68
2023-01-18T23:57:42.638Z,940.78
